createdAt,value
2022-08-09T00:01:43.063Z,3.67
2022-08-09T00:04:33.823Z,4.30
2022-08-09T00:07:03.954Z,4.00
2022-08-09T00:09:37.874Z,3.85
2022-08-09T00:12:05.701Z,4.90
2022-08-09T00:14:37.908Z,3.90
2022-08-09T00:17:06.330Z,4.50
2022-08-09T00:19:34.106Z,4.60
2022-08-09T00:22:03.439Z,4.03
2022-08-09T00:24:32.277Z,4.70
2022-08-09T00:27:01.252Z,4.30
2022-08-09T00:29:39.764Z,5.27
2022-08-09T00:32:26.941Z,4.70
2022-08-09T00:34:55.237Z,4.47
2022-08-09T00:37:22.293Z,4.97
2022-08-09T00:40:09.116Z,4.70
2022-08-09T00:44:10.306Z,5.60
2022-08-09T00:45:25.335Z,5.35
2022-08-09T00:47:52.522Z,4.82
2022-08-09T00:50:23.330Z,5.30
2022-08-09T00:52:50.645Z,5.32
2022-08-09T00:56:02.962Z,5.53
2022-08-09T00:58:05.864Z,5.93
2022-08-09T01:00:35.235Z,5.55
2022-08-09T01:03:19.527Z,5.43
2022-08-09T01:06:20.440Z,5.35
2022-08-09T01:09:09.613Z,5.80
2022-08-09T01:12:02.033Z,6.30
2022-08-09T01:15:17.079Z,5.90
2022-08-09T01:17:57.666Z,5.25
2022-08-09T01:20:45.373Z,6.22
2022-08-09T01:24:10.852Z,5.87
2022-08-09T01:27:12.070Z,5.85
2022-08-09T01:29:54.919Z,5.40
2022-08-09T01:32:34.700Z,5.63
2022-08-09T01:35:29.160Z,5.60
2022-08-09T01:38:10.492Z,6.00
2022-08-09T01:40:53.105Z,6.22
2022-08-09T01:43:42.181Z,5.60
2022-08-09T01:46:26.944Z,6.00
2022-08-09T01:48:59.825Z,6.53
2022-08-09T01:51:32.230Z,7.23
2022-08-09T01:54:02.800Z,6.80
2022-08-09T01:56:33.979Z,6.60
2022-08-09T01:59:08.596Z,6.90
2022-08-09T02:01:59.208Z,7.00
2022-08-09T02:04:26.012Z,7.00
2022-08-09T02:08:35.943Z,7.18
2022-08-09T02:10:18.096Z,8.38
2022-08-09T02:12:46.431Z,7.32
2022-08-09T02:15:19.989Z,7.55
2022-08-09T02:18:09.146Z,6.67
2022-08-09T02:20:46.869Z,6.97
2022-08-09T02:23:54.451Z,7.53
2022-08-09T02:26:27.044Z,6.95
2022-08-09T02:29:02.136Z,7.10
2022-08-09T02:31:38.757Z,7.43
2022-08-09T02:34:25.958Z,6.82
2022-08-09T02:37:05.504Z,7.43
2022-08-09T02:39:45.417Z,6.75
2022-08-09T02:42:25.744Z,6.95
2022-08-09T02:45:09.801Z,6.13
2022-08-09T02:47:57.314Z,6.50
2022-08-09T02:50:38.363Z,6.53
2022-08-09T02:53:26.460Z,6.72
2022-08-09T02:55:58.800Z,7.13
2022-08-09T02:58:32.450Z,7.80
2022-08-09T03:01:08.085Z,7.43
2022-08-09T03:04:18.347Z,6.85
2022-08-09T03:06:29.763Z,6.63
2022-08-09T03:08:58.155Z,6.95
2022-08-09T03:12:04.707Z,6.80
2022-08-09T03:14:15.865Z,6.78
2022-08-09T03:16:47.548Z,6.97
2022-08-09T03:19:52.737Z,7.13
2022-08-09T03:22:11.874Z,7.38
2022-08-09T03:24:42.605Z,6.87
2022-08-09T03:27:21.403Z,7.53
2022-08-09T03:29:57.558Z,6.75
2022-08-09T03:32:31.456Z,7.30
2022-08-09T03:34:59.737Z,6.88
2022-08-09T03:37:55.364Z,8.03
2022-08-09T03:40:18.063Z,7.28
2022-08-09T03:42:46.663Z,7.38
2022-08-09T03:45:14.218Z,7.75
2022-08-09T03:47:46.849Z,7.30
2022-08-09T03:50:18.931Z,6.97
2022-08-09T03:52:59.924Z,7.57
2022-08-09T03:55:30.161Z,7.55
2022-08-09T03:58:14.750Z,7.20
2022-08-09T04:00:46.047Z,8.30
2022-08-09T04:03:24.980Z,7.73
2022-08-09T04:06:05.700Z,7.88
2022-08-09T04:08:33.620Z,6.93
2022-08-09T04:11:01.421Z,7.40
2022-08-09T04:14:37.462Z,7.80
2022-08-09T04:16:19.632Z,7.30
2022-08-09T04:18:49.271Z,7.10
2022-08-09T04:21:18.868Z,8.07
2022-08-09T04:23:53.766Z,7.63
2022-08-09T04:26:24.707Z,8.05
2022-08-09T04:28:56.132Z,8.07
2022-08-09T04:31:37.589Z,7.10
2022-08-09T04:34:13.830Z,8.38
2022-08-09T04:36:50.399Z,7.68
2022-08-09T04:39:17.732Z,7.75
2022-08-09T04:41:44.977Z,8.33
2022-08-09T04:44:14.534Z,7.95
2022-08-09T04:46:58.314Z,7.72
2022-08-09T04:49:53.709Z,6.97
2022-08-09T04:52:26.425Z,7.45
2022-08-09T04:54:59.523Z,7.93
2022-08-09T04:57:54.164Z,8.38
2022-08-09T05:00:16.620Z,8.65
2022-08-09T05:02:44.229Z,8.32
2022-08-09T05:05:31.408Z,8.20
2022-08-09T05:08:05.750Z,8.87
2022-08-09T05:10:34.393Z,8.15
2022-08-09T05:13:04.076Z,8.25
2022-08-09T05:15:43.054Z,8.80
2022-08-09T05:18:37.955Z,8.30
2022-08-09T05:21:10.092Z,8.77
2022-08-09T05:23:57.854Z,7.95
2022-08-09T05:26:45.519Z,8.40
2022-08-09T05:29:21.983Z,8.02
2022-08-09T05:31:58.887Z,9.00
2022-08-09T05:34:32.376Z,9.10
2022-08-09T05:37:11.348Z,7.72
2022-08-09T05:39:43.750Z,9.32
2022-08-09T05:42:20.524Z,8.05
2022-08-09T05:44:53.002Z,8.65
2022-08-09T05:47:22.744Z,8.77
2022-08-09T05:50:28.050Z,8.48
2022-08-09T05:52:44.646Z,8.55
2022-08-09T05:55:21.804Z,7.88
2022-08-09T05:57:57.419Z,8.60
2022-08-09T06:00:29.027Z,9.03
2022-08-09T06:03:03.364Z,8.85
2022-08-09T06:05:50.145Z,8.13
2022-08-09T06:08:24.709Z,8.40
2022-08-09T06:10:55.350Z,7.50
2022-08-09T06:13:23.661Z,8.17
2022-08-09T06:15:52.379Z,8.98
2022-08-09T06:18:25.337Z,9.07
2022-08-09T06:20:58.523Z,8.32
2022-08-09T06:23:59.022Z,7.78
2022-08-09T06:26:21.010Z,7.33
2022-08-09T06:29:00.425Z,7.57
2022-08-09T06:31:40.599Z,7.38
2022-08-09T06:34:22.623Z,6.85
2022-08-09T06:36:50.630Z,7.60
2022-08-09T06:39:26.056Z,7.10
2022-08-09T06:42:13.152Z,6.40
2022-08-09T06:44:40.156Z,6.30
2022-08-09T06:47:07.112Z,6.38
2022-08-09T06:50:11.709Z,6.20
2022-08-09T06:52:29.654Z,5.90
2022-08-09T06:54:56.681Z,5.68
2022-08-09T06:57:42.444Z,5.43
2022-08-09T07:00:50.474Z,5.60
2022-08-09T07:02:59.087Z,5.93
2022-08-09T07:05:53.797Z,5.47
2022-08-09T07:08:13.248Z,4.40
2022-08-09T07:10:40.513Z,4.70
2022-08-09T07:13:27.732Z,4.95
2022-08-09T07:16:42.915Z,4.50
2022-08-09T07:18:41.511Z,4.87
2022-08-09T07:21:10.387Z,4.57
2022-08-09T07:23:56.527Z,4.60
2022-08-09T07:26:25.602Z,4.78
2022-08-09T07:29:08.986Z,4.25
2022-08-09T07:31:45.854Z,4.20
2022-08-09T07:34:20.436Z,4.10
2022-08-09T07:36:49.692Z,4.03
2022-08-09T07:39:20.518Z,3.90
2022-08-09T07:42:06.471Z,3.28
2022-08-09T07:44:50.934Z,3.53
2022-08-09T07:47:19.841Z,3.53
2022-08-09T07:50:04.643Z,3.00
2022-08-09T07:52:36.527Z,2.67
2022-08-09T07:55:09.705Z,2.80
2022-08-09T07:57:47.133Z,2.57
2022-08-09T08:00:20.835Z,2.70
2022-08-09T08:03:08.249Z,2.60
2022-08-09T08:05:54.016Z,2.60
2022-08-09T08:09:02.633Z,2.55
2022-08-09T08:12:24.020Z,2.60
2022-08-09T08:13:58.584Z,1.70
2022-08-09T08:16:31.287Z,2.08
2022-08-09T08:18:59.826Z,1.80
2022-08-09T08:21:31.229Z,1.48
2022-08-09T08:24:00.868Z,1.20
2022-08-09T08:26:55.042Z,1.60
2022-08-09T08:29:20.388Z,1.35
2022-08-09T08:32:03.667Z,1.50
2022-08-09T08:34:34.593Z,1.40
2022-08-09T08:37:02.527Z,1.40
2022-08-09T08:39:29.578Z,1.27
2022-08-09T08:42:07.417Z,1.27
2022-08-09T08:44:39.465Z,1.33
2022-08-09T08:47:12.255Z,1.50
2022-08-09T08:49:47.790Z,1.30
2022-08-09T08:52:58.202Z,1.50
2022-08-09T08:55:15.372Z,0.93
2022-08-09T08:57:56.385Z,1.35
2022-08-09T09:00:30.475Z,1.33
2022-08-09T09:03:11.857Z,1.20
2022-08-09T09:05:59.139Z,1.10
2022-08-09T09:08:38.103Z,1.23
2022-08-09T09:11:17.832Z,1.08
2022-08-09T09:13:57.586Z,1.20
2022-08-09T09:16:30.557Z,1.20
2022-08-09T09:19:22.602Z,1.00
2022-08-09T09:22:11.845Z,1.00
2022-08-09T09:24:45.340Z,0.95
2022-08-09T09:28:04.184Z,1.33
2022-08-09T09:30:40.073Z,0.73
2022-08-09T09:33:16.571Z,1.02
2022-08-09T09:36:00.732Z,1.02
2022-08-09T09:38:42.849Z,1.25
2022-08-09T09:41:11.294Z,1.23
2022-08-09T09:44:11.143Z,1.10
2022-08-09T09:46:42.126Z,1.58
2022-08-09T09:49:13.194Z,1.30
2022-08-09T09:51:41.776Z,1.20
2022-08-09T09:54:21.047Z,1.30
2022-08-09T09:58:00.676Z,1.27
2022-08-09T09:59:37.365Z,1.20
2022-08-09T10:02:04.462Z,1.17
2022-08-09T10:04:32.317Z,1.30
2022-08-09T10:07:03.537Z,1.10
2022-08-09T10:09:55.061Z,1.13
2022-08-09T10:12:29.449Z,0.88
2022-08-09T10:15:17.424Z,1.27
2022-08-09T10:18:12.461Z,1.02
2022-08-09T10:20:44.720Z,1.17
2022-08-09T10:23:20.841Z,1.00
2022-08-09T10:26:08.093Z,0.85
2022-08-09T10:28:39.138Z,0.90
2022-08-09T10:34:10.278Z,0.90
2022-08-09T10:36:43.932Z,0.90
2022-08-09T10:39:15.780Z,0.80
2022-08-09T10:41:46.253Z,1.00
2022-08-09T10:44:19.362Z,1.00
2022-08-09T10:48:10.178Z,0.82
2022-08-09T10:50:15.012Z,0.90
2022-08-09T10:53:10.322Z,1.00
2022-08-09T10:55:57.947Z,1.00
2022-08-09T10:58:37.500Z,1.02
2022-08-09T11:03:03.351Z,0.75
2022-08-09T11:04:20.051Z,0.90
2022-08-09T11:07:03.343Z,0.73
2022-08-09T11:09:48.237Z,0.90
2022-08-09T11:12:29.469Z,0.90
2022-08-09T11:15:01.491Z,0.82
2022-08-09T11:17:45.208Z,0.60
2022-08-09T11:20:22.649Z,0.80
2022-08-09T11:22:57.199Z,0.80
2022-08-09T11:25:36.257Z,0.80
2022-08-09T11:28:38.640Z,0.80
2022-08-09T11:31:49.308Z,0.70
2022-08-09T11:34:36.326Z,0.57
2022-08-09T11:37:07.574Z,0.95
2022-08-09T11:40:02.711Z,0.77
2022-08-09T11:42:51.440Z,0.82
2022-08-09T11:45:42.452Z,0.77
2022-08-09T11:48:26.330Z,0.80
2022-08-09T11:52:53.791Z,0.80
2022-08-09T11:54:21.381Z,0.70
2022-08-09T11:56:55.271Z,0.80
2022-08-09T11:59:30.144Z,1.00
2022-08-09T12:02:34.817Z,0.90
2022-08-09T12:04:58.701Z,0.75
2022-08-09T12:07:34.360Z,1.05
2022-08-09T12:10:31.795Z,1.00
2022-08-09T12:12:56.156Z,1.10
2022-08-09T12:15:48.626Z,0.77
2022-08-09T12:18:26.172Z,0.90
2022-08-09T12:21:00.422Z,0.85
2022-08-09T12:23:58.054Z,0.90
2022-08-09T12:26:19.798Z,1.07
2022-08-09T12:28:59.206Z,1.10
2022-08-09T12:31:58.838Z,1.00
2022-08-09T12:34:17.726Z,1.02
2022-08-09T12:36:58.902Z,1.25
2022-08-09T12:39:42.793Z,1.00
2022-08-09T12:42:16.355Z,0.88
2022-08-09T12:44:52.019Z,0.90
2022-08-09T12:47:22.777Z,1.20
2022-08-09T12:50:09.064Z,1.00
2022-08-09T12:53:08.147Z,0.83
2022-08-09T12:56:15.442Z,1.02
2022-08-09T12:58:27.271Z,0.80
2022-08-09T13:00:55.934Z,0.80
2022-08-09T13:03:53.315Z,1.00
2022-08-09T13:06:34.583Z,1.20
2022-08-09T13:09:18.186Z,0.85
2022-08-09T13:11:50.356Z,0.73
2022-08-09T13:14:40.761Z,1.00
2022-08-09T13:17:44.024Z,0.93
2022-08-09T13:20:13.323Z,1.00
2022-08-09T13:23:05.164Z,0.70
2022-08-09T13:25:53.318Z,0.98
2022-08-09T13:28:33.789Z,1.10
2022-08-09T13:32:17.133Z,1.00
2022-08-09T13:33:58.830Z,0.80
2022-08-09T13:36:42.653Z,1.02
2022-08-09T13:41:51.303Z,1.08
2022-08-09T13:42:12.466Z,1.25
2022-08-09T13:44:42.842Z,1.10
2022-08-09T13:47:26.962Z,1.00
2022-08-09T13:50:07.885Z,1.02
2022-08-09T13:52:40.576Z,0.98
2022-08-09T13:55:13.816Z,0.85
2022-08-09T13:57:53.082Z,0.90
2022-08-09T14:00:28.531Z,1.10
2022-08-09T14:03:04.013Z,1.00
2022-08-09T14:05:56.576Z,1.15
2022-08-09T14:08:30.386Z,1.00
2022-08-09T14:11:01.405Z,0.80
2022-08-09T14:14:24.887Z,1.00
2022-08-09T14:16:28.844Z,1.20
2022-08-09T14:18:57.352Z,1.10
2022-08-09T14:21:26.940Z,0.90
2022-08-09T14:23:57.613Z,1.05
2022-08-09T14:26:32.612Z,1.00
2022-08-09T14:29:25.856Z,1.00
2022-08-09T14:31:55.832Z,1.10
2022-08-09T14:34:31.564Z,0.80
2022-08-09T14:37:02.639Z,1.20
2022-08-09T14:39:40.539Z,1.00
2022-08-09T14:42:32.066Z,0.98
2022-08-09T14:46:40.436Z,1.00
2022-08-09T14:47:57.017Z,0.85
2022-08-09T14:50:25.370Z,1.10
2022-08-09T14:52:54.616Z,1.30
2022-08-09T14:55:21.981Z,1.30
2022-08-09T14:57:49.675Z,0.80
2022-08-09T15:00:17.862Z,0.90
2022-08-09T15:02:47.771Z,0.90
2022-08-09T15:05:19.285Z,0.67
2022-08-09T15:07:56.305Z,0.93
2022-08-09T15:10:28.247Z,0.90
2022-08-09T15:12:56.803Z,0.90
2022-08-09T15:15:24.687Z,0.73
2022-08-09T15:17:56.069Z,0.90
2022-08-09T15:21:55.259Z,1.00
2022-08-09T15:24:00.751Z,0.80
2022-08-09T15:26:00.642Z,0.98
2022-08-09T15:28:31.036Z,1.00
2022-08-09T15:31:10.066Z,0.90
2022-08-09T15:34:31.977Z,1.20
2022-08-09T15:36:30.302Z,1.00
2022-08-09T15:39:01.049Z,1.10
2022-08-09T15:41:32.290Z,0.90
2022-08-09T15:44:03.995Z,0.80
2022-08-09T15:46:34.526Z,0.88
2022-08-09T15:49:22.732Z,1.10
2022-08-09T15:52:03.907Z,1.10
2022-08-09T15:54:49.103Z,0.93
2022-08-09T15:57:35.997Z,0.97
2022-08-09T16:00:14.633Z,0.95
2022-08-09T16:02:53.706Z,1.10
2022-08-09T16:05:26.327Z,1.10
2022-08-09T16:07:53.283Z,0.90
2022-08-09T16:10:54.671Z,1.00
2022-08-09T16:13:20.956Z,0.90
2022-08-09T16:16:09.917Z,0.70
2022-08-09T16:18:44.699Z,0.90
2022-08-09T16:21:17.464Z,1.10
2022-08-09T16:23:54.850Z,0.90
2022-08-09T16:26:33.859Z,0.98
2022-08-09T16:29:15.534Z,1.50
2022-08-09T16:32:19.168Z,1.08
2022-08-09T16:34:54.400Z,1.00
2022-08-09T16:37:54.527Z,0.80
2022-08-09T16:40:13.893Z,0.80
2022-08-09T16:42:48.633Z,1.02
2022-08-09T16:45:19.610Z,0.80
2022-08-09T16:48:38.779Z,1.00
2022-08-09T16:50:38.275Z,0.90
2022-08-09T16:53:06.040Z,1.00
2022-08-09T16:55:58.338Z,1.00
2022-08-09T16:58:21.200Z,0.85
2022-08-09T17:00:49.477Z,1.20
2022-08-09T17:03:21.655Z,0.73
2022-08-09T17:06:09.408Z,0.77
2022-08-09T17:09:03.142Z,1.00
2022-08-09T17:11:37.710Z,1.10
2022-08-09T17:14:27.346Z,1.10
2022-08-09T17:17:02.354Z,1.00
2022-08-09T17:20:05.124Z,1.30
2022-08-09T17:22:23.967Z,0.90
2022-08-09T17:24:55.018Z,0.82
2022-08-09T17:27:22.929Z,0.82
2022-08-09T17:29:53.079Z,1.07
2022-08-09T17:32:26.675Z,1.27
2022-08-09T17:35:11.547Z,0.70
2022-08-09T17:38:12.671Z,0.90
2022-08-09T17:40:32.618Z,1.15
2022-08-09T17:43:32.672Z,0.90
2022-08-09T17:46:04.114Z,1.13
2022-08-09T17:48:38.901Z,0.80
2022-08-09T17:51:17.920Z,1.17
2022-08-09T17:53:54.934Z,0.77
2022-08-09T17:56:35.255Z,0.90
2022-08-09T17:59:09.083Z,0.70
2022-08-09T18:02:03.235Z,0.80
2022-08-09T18:04:27.076Z,1.00
2022-08-09T18:06:55.636Z,0.80
2022-08-09T18:09:35.714Z,1.07
2022-08-09T18:12:17.272Z,0.88
2022-08-09T18:14:54.226Z,0.90
2022-08-09T18:18:01.535Z,0.90
2022-08-09T18:20:56.085Z,0.90
2022-08-09T18:23:05.244Z,1.20
2022-08-09T18:25:50.135Z,1.35
2022-08-09T18:30:34.826Z,0.90
2022-08-09T18:31:06.765Z,0.90
2022-08-09T18:33:34.507Z,1.20
2022-08-09T18:36:01.553Z,1.37
2022-08-09T18:38:28.908Z,1.10
2022-08-09T18:40:56.200Z,1.10
2022-08-09T18:43:24.899Z,1.30
2022-08-09T18:46:49.262Z,1.00
2022-08-09T18:48:44.298Z,0.83
2022-08-09T18:51:11.252Z,1.20
2022-08-09T18:54:01.905Z,0.95
2022-08-09T18:56:27.018Z,1.10
2022-08-09T18:58:56.234Z,1.08
2022-08-09T19:01:24.066Z,1.83
2022-08-09T19:04:01.343Z,0.85
2022-08-09T19:06:34.343Z,1.25
2022-08-09T19:09:05.702Z,0.95
2022-08-09T19:11:38.335Z,1.00
2022-08-09T19:14:09.490Z,0.93
2022-08-09T19:16:37.939Z,1.33
2022-08-09T19:19:21.526Z,1.27
2022-08-09T19:22:06.172Z,0.90
2022-08-09T19:25:09.912Z,0.80
2022-08-09T19:27:28.487Z,1.07
2022-08-09T19:30:23.281Z,0.90
2022-08-09T19:32:45.952Z,0.90
2022-08-09T19:35:20.198Z,1.20
2022-08-09T19:37:58.043Z,1.20
2022-08-09T19:40:33.375Z,1.00
2022-08-09T19:43:10.431Z,1.00
2022-08-09T19:45:43.355Z,1.10
2022-08-09T19:48:10.825Z,1.05
2022-08-09T19:50:50.749Z,1.20
2022-08-09T19:53:21.695Z,1.30
2022-08-09T19:56:03.502Z,1.25
2022-08-09T19:58:33.767Z,1.20
2022-08-09T20:01:06.005Z,1.30
2022-08-09T20:04:16.971Z,1.40
2022-08-09T20:06:31.411Z,1.30
2022-08-09T20:08:59.492Z,1.45
2022-08-09T20:11:42.993Z,1.80
2022-08-09T20:14:15.382Z,1.48
2022-08-09T20:16:49.993Z,1.15
2022-08-09T20:19:46.379Z,1.60
2022-08-09T20:22:08.963Z,1.60
2022-08-09T20:24:37.383Z,1.45
2022-08-09T20:27:08.827Z,1.58
2022-08-09T20:29:38.789Z,1.98
2022-08-09T20:32:41.935Z,1.67
2022-08-09T20:34:56.482Z,1.65
2022-08-09T20:37:23.851Z,1.83
2022-08-09T20:40:16.833Z,1.20
2022-08-09T20:42:38.238Z,1.58
2022-08-09T20:46:02.030Z,1.50
2022-08-09T20:47:55.175Z,1.50
2022-08-09T20:50:48.182Z,1.50
2022-08-09T20:53:35.838Z,1.50
2022-08-09T20:56:01.949Z,1.50
2022-08-09T20:58:32.424Z,1.27
2022-08-09T21:01:32.446Z,1.42
2022-08-09T21:04:07.906Z,1.25
2022-08-09T21:06:44.728Z,1.65
2022-08-09T21:09:14.152Z,1.30
2022-08-09T21:14:30.917Z,1.38
2022-08-09T21:17:02.096Z,1.30
2022-08-09T21:20:05.255Z,1.30
2022-08-09T21:22:46.898Z,1.25
2022-08-09T21:25:37.962Z,1.30
2022-08-09T21:28:07.125Z,1.13
2022-08-09T21:30:37.011Z,1.50
2022-08-09T21:33:08.429Z,1.10
2022-08-09T21:35:39.462Z,1.30
2022-08-09T21:38:11.216Z,1.50
2022-08-09T21:40:39.632Z,1.35
2022-08-09T21:43:09.028Z,1.25
2022-08-09T21:45:39.181Z,1.23
2022-08-09T21:48:08.398Z,1.30
2022-08-09T21:50:39.030Z,1.40
2022-08-09T21:53:22.395Z,1.10
2022-08-09T21:56:00.486Z,1.10
2022-08-09T21:58:31.190Z,1.10
2022-08-09T22:00:59.197Z,1.08
2022-08-09T22:03:26.460Z,1.50
2022-08-09T22:05:55.236Z,1.20
2022-08-09T22:08:25.752Z,1.20
2022-08-09T22:11:49.531Z,1.27
2022-08-09T22:13:43.562Z,1.40
2022-08-09T22:16:11.804Z,1.30
2022-08-09T22:18:53.262Z,1.27
2022-08-09T22:21:25.015Z,1.27
2022-08-09T22:24:06.580Z,1.40
2022-08-09T22:26:37.743Z,1.20
2022-08-09T22:29:10.027Z,1.27
2022-08-09T22:31:44.313Z,1.40
2022-08-09T22:34:25.862Z,1.20
2022-08-09T22:36:58.250Z,1.58
2022-08-09T22:39:55.586Z,1.52
2022-08-09T22:42:20.827Z,1.30
2022-08-09T22:45:02.266Z,1.48
2022-08-09T22:48:14.692Z,1.63
2022-08-09T22:50:26.837Z,1.10
2022-08-09T22:52:54.933Z,1.38
2022-08-09T22:55:39.428Z,1.33
2022-08-09T22:58:20.492Z,1.58
2022-08-09T23:00:59.744Z,1.45
2022-08-09T23:04:02.405Z,1.73
2022-08-09T23:06:14.241Z,1.50
2022-08-09T23:08:44.961Z,1.57
2022-08-09T23:11:16.668Z,1.40
2022-08-09T23:13:49.095Z,1.30
2022-08-09T23:16:19.239Z,1.50
2022-08-09T23:18:46.200Z,1.60
2022-08-09T23:21:15.810Z,1.77
2022-08-09T23:24:05.190Z,1.80
2022-08-09T23:26:34.897Z,1.30
2022-08-09T23:29:01.859Z,1.58
2022-08-09T23:31:28.783Z,1.75
2022-08-09T23:33:55.715Z,1.50
2022-08-09T23:36:22.677Z,1.80
2022-08-09T23:38:49.664Z,1.60
2022-08-09T23:41:28.893Z,1.67
2022-08-09T23:44:01.529Z,1.73
2022-08-09T23:46:30.645Z,1.70
2022-08-09T23:48:59.424Z,1.88
2022-08-09T23:51:28.089Z,1.65
2022-08-09T23:54:02.911Z,1.60
2022-08-09T23:56:53.180Z,1.58
2022-08-09T23:59:20.956Z,1.40
